PWSweather.com
Personal Weather Stations
Station Observations
WATERF01
WaterfordIE

WaterfordIE

Lat: 52.2412507, Lon: -7.1414691

Elevation: 65

Station Type: Davis Vantage Vue

Latest ConditionsUpdated 9:10:01 AM GMT Friday, Feb 22, 2019
Currently Today's Max Today's Min Today's Average
Temperature 52.1°F11.2°C 52.8°F11.6°C 51.7°F10.9°C 52.2°F11.2°C
Dew Point 48.0°F8.9°C 48.0°F8.9°C 46.4°F8.0°C 46.9°F8.3°C
Winds 9.2 mph S14.8 kmh S 17.3 mph -27.8 kmh - - 12.4 mph 20.0 kmh
Wind Gusts 11.5 mph18.5 kmh 26.5 mph42.6 kmh - -
Humidity 86% 86% 80% 82%
Pressure 30.34 in1027.4 mb 30.34 in1027.4 mb 30.21 in1023.0 mb -
Hour Temp Dew Point Humidity Winds Wind Gusts Pressure Precip Precip Rate Daily Precip Total
09:10 AM 52.1°F11.2°C 48.0°F8.9°C 86% 9.2 mph S14.8 kmh S 11.5 mph18.5 kmh 30.34 in1027.4 mb - 0.00 in0.0 mm 0.00 in0.0 mm
09:00 AM 52.0°F11.1°C 47.9°F8.8°C 86% 11.5 mph SE18.5 kmh SE 16.1 mph25.9 kmh 30.33 in1027.1 mb - 0.00 in0.0 mm 0.00 in0.0 mm
08:50 AM 51.9°F11.1°C 47.8°F8.8°C 86% 10.4 mph S16.7 kmh S 16.1 mph25.9 kmh 30.33 in1027.1 mb - 0.00 in0.0 mm 0.00 in0.0 mm
08:40 AM 51.7°F10.9°C 47.6°F8.7°C 86% 9.2 mph SSE14.8 kmh SSE 13.8 mph22.2 kmh 30.33 in1027.1 mb - 0.00 in0.0 mm 0.00 in0.0 mm
08:30 AM 51.7°F10.9°C 47.6°F8.7°C 86% 10.4 mph S16.7 kmh S 12.7 mph20.4 kmh 30.33 in1027.1 mb - 0.00 in0.0 mm 0.00 in0.0 mm
08:20 AM 51.8°F11.0°C 47.4°F8.6°C 85% 10.4 mph S16.7 kmh S 13.8 mph22.2 kmh 30.32 in1026.8 mb - 0.00 in0.0 mm 0.00 in0.0 mm
08:10 AM 51.8°F11.0°C 47.4°F8.6°C 85% 9.2 mph S14.8 kmh S 11.5 mph18.5 kmh 30.33 in1027.1 mb - 0.00 in0.0 mm 0.00 in0.0 mm
08:00 AM 51.8°F11.0°C 47.4°F8.6°C 85% 10.4 mph S16.7 kmh S 16.1 mph25.9 kmh 30.32 in1026.8 mb - 0.00 in0.0 mm 0.00 in0.0 mm
07:50 AM 51.8°F11.0°C 47.4°F8.6°C 85% 11.5 mph S18.5 kmh S 16.1 mph25.9 kmh 30.32 in1026.8 mb - 0.00 in0.0 mm 0.00 in0.0 mm
07:40 AM 51.8°F11.0°C 47.4°F8.6°C 85% 11.5 mph S18.5 kmh S 15.0 mph24.1 kmh 30.32 in1026.8 mb - 0.00 in0.0 mm 0.00 in0.0 mm
07:30 AM 51.8°F11.0°C 47.4°F8.6°C 85% 9.2 mph S14.8 kmh S 15.0 mph24.1 kmh 30.31 in1026.4 mb - 0.00 in0.0 mm 0.00 in0.0 mm
07:20 AM 51.8°F11.0°C 47.4°F8.6°C 85% 9.2 mph S14.8 kmh S 11.5 mph18.5 kmh 30.31 in1026.4 mb - 0.00 in0.0 mm 0.00 in0.0 mm
07:10 AM 51.8°F11.0°C 47.1°F8.4°C 84% 9.2 mph SSE14.8 kmh SSE 13.8 mph22.2 kmh 30.31 in1026.4 mb - 0.00 in0.0 mm 0.00 in0.0 mm
07:00 AM 51.9°F11.1°C 47.2°F8.4°C 84% 9.2 mph S14.8 kmh S 12.7 mph20.4 kmh 30.31 in1026.4 mb - 0.00 in0.0 mm 0.00 in0.0 mm
06:50 AM 51.8°F11.0°C 47.1°F8.4°C 84% 8.1 mph S13.0 kmh S 11.5 mph18.5 kmh 30.31 in1026.4 mb - 0.00 in0.0 mm 0.00 in0.0 mm
06:40 AM 51.8°F11.0°C 47.1°F8.4°C 84% 10.4 mph S16.7 kmh S 13.8 mph22.2 kmh 30.31 in1026.4 mb - 0.00 in0.0 mm 0.00 in0.0 mm
06:30 AM 51.9°F11.1°C 47.2°F8.4°C 84% 9.2 mph S14.8 kmh S 15.0 mph24.1 kmh 30.31 in1026.4 mb - 0.00 in0.0 mm 0.00 in0.0 mm
06:20 AM 52.1°F11.2°C 47.1°F8.4°C 83% 10.4 mph S16.7 kmh S 16.1 mph25.9 kmh 30.30 in1026.1 mb - 0.00 in0.0 mm 0.00 in0.0 mm
06:10 AM 52.1°F11.2°C 47.1°F8.4°C 83% 10.4 mph S16.7 kmh S 15.0 mph24.1 kmh 30.30 in1026.1 mb - 0.00 in0.0 mm 0.00 in0.0 mm
06:00 AM 52.2°F11.2°C 47.2°F8.4°C 83% 11.5 mph S18.5 kmh S 19.6 mph31.5 kmh 30.29 in1025.7 mb - 0.00 in0.0 mm 0.00 in0.0 mm
05:50 AM 52.3°F11.3°C 47.0°F8.3°C 82% 10.4 mph S16.7 kmh S 18.4 mph29.6 kmh 30.29 in1025.7 mb - 0.00 in0.0 mm 0.00 in0.0 mm
05:40 AM 52.3°F11.3°C 47.0°F8.3°C 82% 11.5 mph S18.5 kmh S 16.1 mph25.9 kmh 30.29 in1025.7 mb - 0.00 in0.0 mm 0.00 in0.0 mm
05:30 AM 52.4°F11.3°C 46.7°F8.2°C 81% 12.7 mph S20.4 kmh S 19.6 mph31.5 kmh 30.29 in1025.7 mb - 0.00 in0.0 mm 0.00 in0.0 mm
05:20 AM 52.4°F11.3°C 47.1°F8.4°C 82% 11.5 mph S18.5 kmh S 16.1 mph25.9 kmh 30.28 in1025.4 mb - 0.00 in0.0 mm 0.00 in0.0 mm
05:10 AM 52.4°F11.3°C 46.7°F8.2°C 81% 12.7 mph S20.4 kmh S 19.6 mph31.5 kmh 30.28 in1025.4 mb - 0.00 in0.0 mm 0.00 in0.0 mm
05:00 AM 52.4°F11.3°C 46.7°F8.2°C 81% 11.5 mph S18.5 kmh S 16.1 mph25.9 kmh 30.28 in1025.4 mb - 0.00 in0.0 mm 0.00 in0.0 mm
04:50 AM 52.6°F11.4°C 46.6°F8.1°C 80% 13.8 mph S22.2 kmh S 20.7 mph33.3 kmh 30.27 in1025.1 mb - 0.00 in0.0 mm 0.00 in0.0 mm
04:40 AM 52.4°F11.3°C 46.4°F8.0°C 80% 12.7 mph S20.4 kmh S 16.1 mph25.9 kmh 30.26 in1024.7 mb - 0.00 in0.0 mm 0.00 in0.0 mm
04:30 AM 52.4°F11.3°C 46.4°F8.0°C 80% 13.8 mph S22.2 kmh S 21.9 mph35.2 kmh 30.25 in1024.4 mb - 0.00 in0.0 mm 0.00 in0.0 mm
04:20 AM 52.4°F11.3°C 46.4°F8.0°C 80% 13.8 mph S22.2 kmh S 19.6 mph31.5 kmh 30.25 in1024.4 mb - 0.00 in0.0 mm 0.00 in0.0 mm
04:10 AM 52.4°F11.3°C 46.4°F8.0°C 80% 15.0 mph S24.1 kmh S 23.0 mph37.0 kmh 30.25 in1024.4 mb - 0.00 in0.0 mm 0.00 in0.0 mm
04:00 AM 52.4°F11.3°C 46.4°F8.0°C 80% 13.8 mph S22.2 kmh S 25.3 mph40.7 kmh 30.24 in1024.0 mb - 0.00 in0.0 mm 0.00 in0.0 mm
03:50 AM 52.4°F11.3°C 46.4°F8.0°C 80% 15.0 mph S24.1 kmh S 25.3 mph40.7 kmh 30.24 in1024.0 mb - 0.00 in0.0 mm 0.00 in0.0 mm
03:40 AM 52.4°F11.3°C 46.4°F8.0°C 80% 13.8 mph S22.2 kmh S 21.9 mph35.2 kmh 30.24 in1024.0 mb - 0.00 in0.0 mm 0.00 in0.0 mm
03:30 AM 52.4°F11.3°C 46.4°F8.0°C 80% 15.0 mph S24.1 kmh S 18.4 mph29.6 kmh 30.24 in1024.0 mb - 0.00 in0.0 mm 0.00 in0.0 mm
03:20 AM 52.4°F11.3°C 46.4°F8.0°C 80% 15.0 mph S24.1 kmh S 20.7 mph33.3 kmh 30.24 in1024.0 mb - 0.00 in0.0 mm 0.00 in0.0 mm
03:10 AM 52.4°F11.3°C 46.4°F8.0°C 80% 16.1 mph S25.9 kmh S 26.5 mph42.6 kmh 30.23 in1023.7 mb - 0.00 in0.0 mm 0.00 in0.0 mm
03:00 AM 52.4°F11.3°C 46.4°F8.0°C 80% 17.3 mph S27.8 kmh S 25.3 mph40.7 kmh 30.23 in1023.7 mb - 0.00 in0.0 mm 0.00 in0.0 mm
02:50 AM 52.3°F11.3°C 46.4°F8.0°C 80% 15.0 mph S24.1 kmh S 21.9 mph35.2 kmh 30.23 in1023.7 mb - 0.00 in0.0 mm 0.00 in0.0 mm
02:40 AM 52.4°F11.3°C 46.4°F8.0°C 80% 17.3 mph S27.8 kmh S 23.0 mph37.0 kmh 30.23 in1023.7 mb - 0.00 in0.0 mm 0.00 in0.0 mm
02:30 AM 52.5°F11.4°C 46.5°F8.1°C 80% 13.8 mph S22.2 kmh S 19.6 mph31.5 kmh 30.23 in1023.7 mb - 0.00 in0.0 mm 0.00 in0.0 mm
02:20 AM 52.4°F11.3°C 46.7°F8.2°C 81% 16.1 mph S25.9 kmh S 25.3 mph40.7 kmh 30.23 in1023.7 mb - 0.00 in0.0 mm 0.00 in0.0 mm
02:10 AM 52.3°F11.3°C 46.7°F8.2°C 81% 13.8 mph S22.2 kmh S 16.1 mph25.9 kmh 30.23 in1023.7 mb - 0.00 in0.0 mm 0.00 in0.0 mm
02:00 AM 52.4°F11.3°C 46.7°F8.2°C 81% 13.8 mph S22.2 kmh S 19.6 mph31.5 kmh 30.23 in1023.7 mb - 0.00 in0.0 mm 0.00 in0.0 mm
01:50 AM 52.5°F11.4°C 46.9°F8.3°C 81% 15.0 mph S24.1 kmh S 23.0 mph37.0 kmh 30.22 in1023.4 mb - 0.00 in0.0 mm 0.00 in0.0 mm
01:40 AM 52.8°F11.6°C 47.1°F8.4°C 81% 15.0 mph S24.1 kmh S 23.0 mph37.0 kmh 30.22 in1023.4 mb - 0.00 in0.0 mm 0.00 in0.0 mm
01:30 AM 52.4°F11.3°C 46.8°F8.2°C 81% 13.8 mph S22.2 kmh S 20.7 mph33.3 kmh 30.22 in1023.4 mb - 0.00 in0.0 mm 0.00 in0.0 mm
01:20 AM 52.2°F11.2°C 46.9°F8.3°C 82% 15.0 mph SSE24.1 kmh SSE 21.9 mph35.2 kmh 30.21 in1023.0 mb - 0.00 in0.0 mm 0.00 in0.0 mm
01:10 AM 52.2°F11.2°C 46.9°F8.3°C 82% 12.7 mph S20.4 kmh S 19.6 mph31.5 kmh 30.21 in1023.0 mb - 0.00 in0.0 mm 0.00 in0.0 mm
01:00 AM 52.4°F11.3°C 47.1°F8.4°C 82% 12.7 mph S20.4 kmh S 19.6 mph31.5 kmh 30.22 in1023.4 mb - 0.00 in0.0 mm 0.00 in0.0 mm
12:50 AM 52.3°F11.3°C 47.0°F8.3°C 82% 13.8 mph S22.2 kmh S 21.9 mph35.2 kmh 30.22 in1023.4 mb - 0.00 in0.0 mm 0.00 in0.0 mm
12:40 AM 52.2°F11.2°C 46.9°F8.3°C 82% 11.5 mph SSE18.5 kmh SSE 19.6 mph31.5 kmh 30.23 in1023.7 mb - 0.00 in0.0 mm 0.00 in0.0 mm
12:30 AM 52.1°F11.2°C 47.1°F8.4°C 83% 13.8 mph S22.2 kmh S 21.9 mph35.2 kmh 30.23 in1023.7 mb - 0.00 in0.0 mm 0.00 in0.0 mm
12:20 AM 52.0°F11.1°C 47.0°F8.3°C 83% 11.5 mph S18.5 kmh S 16.1 mph25.9 kmh 30.23 in1023.7 mb - 0.00 in0.0 mm 0.00 in0.0 mm
12:10 AM 51.9°F11.1°C 46.9°F8.3°C 83% 11.5 mph S18.5 kmh S 16.1 mph25.9 kmh 30.24 in1024.0 mb - 0.00 in0.0 mm 0.00 in0.0 mm
12:00 AM 51.8°F11.0°C 46.8°F8.2°C 83% 10.4 mph S16.7 kmh S 16.1 mph25.9 kmh 30.24 in1024.0 mb - 0.00 in0.0 mm 0.00 in0.0 mm